createdAt,value
2023-04-16T00:00:19.942Z,29.861
2023-04-16T00:05:19.993Z,29.861
2023-04-16T00:10:20.107Z,29.861
2023-04-16T00:15:16.942Z,29.862
2023-04-16T00:20:20.044Z,29.862
2023-04-16T00:25:20.066Z,29.862
2023-04-16T00:30:20.017Z,29.862
2023-04-16T00:35:20.022Z,29.862
2023-04-16T00:40:20.172Z,29.862
2023-04-16T00:45:20.069Z,29.864
2023-04-16T00:50:20.011Z,29.864
2023-04-16T00:55:20.093Z,29.864
2023-04-16T01:00:20.052Z,29.864
2023-04-16T01:05:16.964Z,29.864
2023-04-16T01:10:16.923Z,29.864
2023-04-16T01:15:20.185Z,29.861
2023-04-16T01:20:20.106Z,29.861
2023-04-16T01:25:20.105Z,29.861
2023-04-16T01:30:20.092Z,29.864
2023-04-16T01:35:20.123Z,29.864
2023-04-16T01:40:20.070Z,29.864
2023-04-16T01:45:20.066Z,29.863
2023-04-16T01:50:20.152Z,29.863
2023-04-16T01:55:20.062Z,29.863
2023-04-16T02:00:17.034Z,29.863
2023-04-16T02:05:17.035Z,29.863
2023-04-16T02:10:20.137Z,29.863
2023-04-16T02:15:20.182Z,29.859
2023-04-16T02:20:20.167Z,29.859
2023-04-16T02:25:20.205Z,29.859
2023-04-16T02:30:20.084Z,29.849
2023-04-16T02:35:20.175Z,29.849
2023-04-16T02:40:20.175Z,29.849
2023-04-16T02:45:20.188Z,29.846
2023-04-16T02:50:20.216Z,29.846
2023-04-16T02:55:17.150Z,29.846
2023-04-16T03:00:17.249Z,29.846
2023-04-16T03:05:20.223Z,29.846
2023-04-16T03:10:20.272Z,29.846
2023-04-16T03:15:20.211Z,29.842
2023-04-16T03:20:20.159Z,29.842
2023-04-16T03:25:20.166Z,29.842
2023-04-16T03:30:20.381Z,29.844
2023-04-16T03:35:20.205Z,29.844
2023-04-16T03:40:20.192Z,29.844
2023-04-16T03:45:17.148Z,29.833
2023-04-16T03:50:17.159Z,29.833
2023-04-16T03:55:20.311Z,29.833
2023-04-16T04:00:16.446Z,29.830
2023-04-16T04:05:16.534Z,29.830
2023-04-16T04:10:19.517Z,29.830
2023-04-16T04:15:19.627Z,29.830
2023-04-16T04:20:19.602Z,29.830
2023-04-16T04:25:19.547Z,29.830
2023-04-16T04:30:19.551Z,29.832
2023-04-16T04:35:19.711Z,29.832
2023-04-16T04:40:19.800Z,29.832
2023-04-16T04:45:19.600Z,29.832
2023-04-16T04:50:19.557Z,29.832
2023-04-16T04:55:16.481Z,29.832
2023-04-16T05:00:16.457Z,29.829
2023-04-16T05:05:19.717Z,29.829
2023-04-16T05:10:19.605Z,29.829
2023-04-16T05:15:19.664Z,29.819
2023-04-16T05:20:19.647Z,29.819
2023-04-16T05:25:19.917Z,29.819
2023-04-16T05:30:19.724Z,29.813
2023-04-16T05:35:19.727Z,29.813
2023-04-16T05:40:19.684Z,29.813
2023-04-16T05:45:19.778Z,29.806
2023-04-16T05:50:16.533Z,29.806
2023-04-16T05:55:19.698Z,29.806
2023-04-16T06:00:19.707Z,29.807
2023-04-16T06:05:19.752Z,29.807
2023-04-16T06:10:19.692Z,29.807
2023-04-16T06:15:19.739Z,29.801
2023-04-16T06:20:19.817Z,29.801
2023-04-16T06:25:19.803Z,29.801
2023-04-16T06:30:19.820Z,29.802
2023-04-16T06:35:19.770Z,29.802
2023-04-16T06:40:16.734Z,29.802
2023-04-16T06:45:16.650Z,29.799
2023-04-16T06:50:19.815Z,29.799
2023-04-16T06:55:19.956Z,29.799
2023-04-16T07:00:19.766Z,29.800
2023-04-16T07:05:19.847Z,29.800
2023-04-16T07:10:19.740Z,29.800
2023-04-16T07:15:19.682Z,29.804
2023-04-16T07:20:19.846Z,29.804
2023-04-16T07:25:19.795Z,29.804
2023-04-16T07:30:19.802Z,29.815
2023-04-16T07:35:16.740Z,29.815
2023-04-16T07:40:16.786Z,29.815
2023-04-16T07:45:19.807Z,29.816
2023-04-16T07:50:19.818Z,29.816
2023-04-16T07:55:19.877Z,29.816
2023-04-16T08:00:20.014Z,29.818
2023-04-16T08:05:19.991Z,29.818
2023-04-16T08:10:19.761Z,29.818
2023-04-16T08:15:19.780Z,29.816
2023-04-16T08:20:19.866Z,29.816
2023-04-16T08:25:19.911Z,29.816
2023-04-16T08:30:16.792Z,29.815
2023-04-16T08:35:16.933Z,29.815
2023-04-16T08:40:20.105Z,29.815
2023-04-16T08:45:19.986Z,29.827
2023-04-16T08:50:19.915Z,29.827
2023-04-16T08:55:20.009Z,29.827
2023-04-16T09:00:19.906Z,29.819
2023-04-16T09:05:19.924Z,29.819
2023-04-16T09:10:20.024Z,29.819
2023-04-16T09:15:20.004Z,29.806
2023-04-16T09:20:16.931Z,29.806
2023-04-16T09:25:16.791Z,29.806
2023-04-16T09:30:20.071Z,29.805
2023-04-16T09:35:20.006Z,29.805
2023-04-16T09:40:20.079Z,29.805
2023-04-16T09:45:20.031Z,29.815
2023-04-16T09:50:20.153Z,29.815
2023-04-16T09:55:20.072Z,29.815
2023-04-16T10:00:20.065Z,29.822
2023-04-16T10:05:20.053Z,29.822
2023-04-16T10:10:20.143Z,29.822
2023-04-16T10:15:16.990Z,29.827
2023-04-16T10:20:17.374Z,29.827
2023-04-16T10:25:20.092Z,29.827
2023-04-16T10:30:20.074Z,29.828
2023-04-16T10:35:20.063Z,29.828
2023-04-16T10:40:20.110Z,29.828
2023-04-16T10:45:20.104Z,29.821
2023-04-16T10:50:20.118Z,29.821
2023-04-16T10:55:20.228Z,29.821
2023-04-16T11:00:20.145Z,29.825
2023-04-16T11:05:20.185Z,29.825
2023-04-16T11:10:17.025Z,29.825
2023-04-16T11:15:17.268Z,29.818
2023-04-16T11:20:20.863Z,29.818
2023-04-16T11:25:20.174Z,29.818
2023-04-16T11:30:20.208Z,29.824
2023-04-16T11:35:20.146Z,29.824
2023-04-16T11:40:20.210Z,29.824
2023-04-16T11:45:20.256Z,29.817
2023-04-16T11:50:20.092Z,29.817
2023-04-16T11:55:20.218Z,29.817
2023-04-16T12:00:17.197Z,29.821
2023-04-16T12:05:17.470Z,29.821
2023-04-16T12:10:20.276Z,29.821
2023-04-16T12:15:20.304Z,29.830
2023-04-16T12:20:20.227Z,29.830
2023-04-16T12:25:20.352Z,29.830
2023-04-16T12:30:20.261Z,29.830
2023-04-16T12:35:20.365Z,29.830
2023-04-16T12:40:20.304Z,29.830
2023-04-16T12:45:20.302Z,29.829
2023-04-16T12:50:20.322Z,29.829
2023-04-16T12:55:17.135Z,29.829
2023-04-16T13:00:17.182Z,29.826
2023-04-16T13:05:20.322Z,29.826
2023-04-16T13:10:20.296Z,29.826
2023-04-16T13:15:20.390Z,29.825
2023-04-16T13:20:21.936Z,29.825
2023-04-16T13:25:20.402Z,29.825
2023-04-16T13:30:20.440Z,29.817
2023-04-16T13:35:20.424Z,29.817
2023-04-16T13:40:20.448Z,29.817
2023-04-16T13:45:20.537Z,29.829
2023-04-16T13:50:17.264Z,29.829
2023-04-16T13:55:17.321Z,29.829
2023-04-16T14:00:20.605Z,29.829
2023-04-16T14:05:20.479Z,29.829
2023-04-16T14:10:20.383Z,29.829
2023-04-16T14:15:20.434Z,29.826
2023-04-16T14:20:20.462Z,29.826
2023-04-16T14:25:20.394Z,29.826
2023-04-16T14:30:20.487Z,29.830
2023-04-16T14:35:20.398Z,29.830
2023-04-16T14:40:17.350Z,29.830
2023-04-16T14:45:17.384Z,29.820
2023-04-16T14:50:20.466Z,29.820
2023-04-16T14:55:20.645Z,29.820
2023-04-16T15:00:20.438Z,29.815
2023-04-16T15:05:20.529Z,29.815
2023-04-16T15:10:20.506Z,29.815
2023-04-16T15:15:20.494Z,29.803
2023-04-16T15:20:20.491Z,29.803
2023-04-16T15:25:20.507Z,29.803
2023-04-16T15:30:20.662Z,29.800
2023-04-16T15:35:17.490Z,29.800
2023-04-16T15:40:17.432Z,29.800
2023-04-16T15:45:20.516Z,29.803
2023-04-16T15:50:20.595Z,29.803
2023-04-16T15:55:20.633Z,29.803
2023-04-16T16:00:20.576Z,29.802
2023-04-16T16:05:20.655Z,29.802
2023-04-16T16:10:20.568Z,29.802
2023-04-16T16:15:20.566Z,29.801
2023-04-16T16:20:20.543Z,29.801
2023-04-16T16:25:18.677Z,29.801
2023-04-16T16:30:18.578Z,29.801
2023-04-16T16:35:18.603Z,29.801
2023-04-16T16:40:18.816Z,29.801
2023-04-16T16:45:18.639Z,29.798
2023-04-16T16:50:18.595Z,29.798
2023-04-16T16:55:19.052Z,29.798
2023-04-16T17:00:18.627Z,29.790
2023-04-16T17:05:15.500Z,29.790
2023-04-16T17:10:15.463Z,29.790
2023-04-16T17:15:21.170Z,29.785
2023-04-16T17:20:18.625Z,29.785
2023-04-16T17:25:18.651Z,29.785
2023-04-16T17:30:18.676Z,29.785
2023-04-16T17:35:18.715Z,29.785
2023-04-16T17:40:18.790Z,29.785
2023-04-16T17:45:18.700Z,29.786
2023-04-16T17:50:18.839Z,29.786
2023-04-16T17:55:18.906Z,29.786
2023-04-16T18:00:15.604Z,29.784
2023-04-16T18:05:15.533Z,29.784
2023-04-16T18:10:18.763Z,29.784
2023-04-16T18:15:18.693Z,29.784
2023-04-16T18:20:18.722Z,29.784
2023-04-16T18:25:21.029Z,29.784
2023-04-16T18:30:23.478Z,29.773
2023-04-16T18:35:15.847Z,29.773
2023-04-16T18:40:18.824Z,29.773
2023-04-16T18:45:21.837Z,29.770
2023-04-16T18:50:15.914Z,29.770
2023-04-16T18:55:15.600Z,29.770
2023-04-16T19:00:18.840Z,29.769
2023-04-16T19:05:18.832Z,29.769
2023-04-16T19:10:18.803Z,29.769
2023-04-16T19:15:18.843Z,29.768
2023-04-16T19:20:18.799Z,29.768
2023-04-16T19:25:15.845Z,29.768
2023-04-16T19:30:18.774Z,29.769
2023-04-16T19:35:18.991Z,29.769
2023-04-16T19:40:18.889Z,29.769
2023-04-16T19:45:15.846Z,29.756
2023-04-16T19:50:15.751Z,29.756
2023-04-16T19:55:18.886Z,29.756
2023-04-16T20:00:18.840Z,29.750
2023-04-16T20:05:18.886Z,29.750
2023-04-16T20:10:18.900Z,29.750
2023-04-16T20:15:18.910Z,29.739
2023-04-16T20:20:18.949Z,29.739
2023-04-16T20:25:18.961Z,29.739
2023-04-16T20:30:18.902Z,29.740
2023-04-16T20:35:18.925Z,29.740
2023-04-16T20:40:15.853Z,29.740
2023-04-16T20:45:15.991Z,29.741
2023-04-16T20:50:18.960Z,29.741
2023-04-16T20:55:18.978Z,29.741
2023-04-16T21:00:19.152Z,29.740
2023-04-16T21:05:18.972Z,29.740
2023-04-16T21:10:18.989Z,29.740
2023-04-16T21:15:19.163Z,29.743
2023-04-16T21:20:18.980Z,29.743
2023-04-16T21:25:19.075Z,29.743
2023-04-16T21:30:15.958Z,29.746
2023-04-16T21:35:15.884Z,29.746
2023-04-16T21:40:19.001Z,29.746
2023-04-16T21:45:19.033Z,29.754
2023-04-16T21:50:19.101Z,29.754
2023-04-16T21:55:19.010Z,29.754
2023-04-16T22:00:19.025Z,29.745
2023-04-16T22:05:19.065Z,29.745
2023-04-16T22:10:19.107Z,29.745
2023-04-16T22:15:19.043Z,29.748
2023-04-16T22:20:19.064Z,29.748
2023-04-16T22:25:16.050Z,29.748
2023-04-16T22:30:15.859Z,29.744
2023-04-16T22:35:19.165Z,29.744
2023-04-16T22:40:19.107Z,29.744
2023-04-16T22:45:19.097Z,29.747
2023-04-16T22:50:19.140Z,29.747
2023-04-16T22:55:19.204Z,29.747
2023-04-16T23:00:19.070Z,29.742
2023-04-16T23:05:19.084Z,29.742
2023-04-16T23:10:19.145Z,29.742
2023-04-16T23:15:19.133Z,29.744
2023-04-16T23:20:16.062Z,29.744
2023-04-16T23:25:19.156Z,29.744
2023-04-16T23:30:19.105Z,29.740
2023-04-16T23:35:19.186Z,29.740
2023-04-16T23:40:19.148Z,29.740
2023-04-16T23:45:19.210Z,29.738
2023-04-16T23:50:19.224Z,29.738
2023-04-16T23:55:19.138Z,29.738
